Carbonville, Utah
Current Conditions -  °F | °C
As of 9:53 PM on Saturday 20 Dec 2014 (Local Time) from KPUC Reporting Station
Overcast Overcast  
Wind Chill: 31°   Ceiling: 2100
Heat Index: 31°   Visibility: 9mi
Dew Point: 26°   Wind: 0mph
Humidity: 82%   Direction: NA
Pressure: 30.11"   Gusts: NA
Location:  39.5589°N, 110.911°W
Report Text: KPUC 210453Z AUTO 00000KT 9SM OVC021 M01/M03 A3011 RMK AO2 SLP233 T10061033
Loading
Personal Weather Stations






























Interactive Weather Map New forecast layout! Learn more

10-Day Weather Forecast

Advertisements
Track Severe Weather on mobile